createdAt,value
2024-05-09T00:00:10.315Z,93409.00
2024-05-09T00:01:07.836Z,93409.00
2024-05-09T00:02:06.884Z,93408.00
2024-05-09T00:03:07.003Z,93406.00
2024-05-09T00:04:06.861Z,93406.00
2024-05-09T00:05:07.059Z,93405.00
2024-05-09T00:06:06.940Z,93405.00
2024-05-09T00:07:06.979Z,93406.00
2024-05-09T00:08:06.917Z,93405.00
2024-05-09T00:09:06.891Z,93406.00
2024-05-09T00:10:11.689Z,93408.00
2024-05-09T00:11:07.978Z,93409.00
2024-05-09T00:12:07.047Z,93406.00
2024-05-09T00:13:07.364Z,93409.00
2024-05-09T00:14:06.962Z,93408.00
2024-05-09T00:15:06.923Z,93408.00
2024-05-09T00:16:07.071Z,93408.00
2024-05-09T00:17:07.002Z,93409.00
2024-05-09T00:18:07.808Z,93409.00
2024-05-09T00:19:07.031Z,93410.00
2024-05-09T00:20:14.313Z,93411.00
2024-05-09T00:21:07.986Z,93409.00
2024-05-09T00:22:06.970Z,93409.00
2024-05-09T00:23:07.612Z,93409.00
2024-05-09T00:24:06.955Z,93407.00
2024-05-09T00:25:06.966Z,93407.00
2024-05-09T00:26:07.050Z,93406.00
2024-05-09T00:27:07.932Z,93406.00
2024-05-09T00:28:07.913Z,93405.00
2024-05-09T00:29:07.058Z,93404.00
2024-05-09T00:30:07.428Z,93403.00
2024-05-09T00:31:07.062Z,93405.00
2024-05-09T00:32:07.159Z,93403.00
2024-05-09T00:33:08.666Z,93399.00
2024-05-09T00:34:07.308Z,93401.00
2024-05-09T00:35:07.218Z,93400.00
2024-05-09T00:36:07.176Z,93398.00
2024-05-09T00:37:07.180Z,93397.00
2024-05-09T00:38:07.338Z,93397.00
2024-05-09T00:39:07.190Z,93396.00
2024-05-09T00:40:09.610Z,93394.00
2024-05-09T00:41:08.222Z,93396.00
2024-05-09T00:42:07.205Z,93397.00
2024-05-09T00:43:07.202Z,93396.00
2024-05-09T00:44:07.291Z,93394.00
2024-05-09T00:45:07.231Z,93396.00
2024-05-09T00:46:07.239Z,93398.00
2024-05-09T00:47:07.565Z,93397.00
2024-05-09T00:48:08.940Z,93400.00
2024-05-09T00:49:07.342Z,93399.00
2024-05-09T00:50:12.633Z,93398.00
2024-05-09T00:51:08.363Z,93394.00
2024-05-09T00:52:07.300Z,93396.00
2024-05-09T00:53:07.345Z,93395.00
2024-05-09T00:54:07.301Z,93396.00
2024-05-09T00:55:07.322Z,93395.00
2024-05-09T00:56:07.371Z,93396.00
2024-05-09T00:57:07.316Z,93395.00
2024-05-09T00:58:07.320Z,93393.00
2024-05-09T00:59:07.382Z,93393.00
2024-05-09T01:00:15.032Z,93396.00
2024-05-09T01:01:08.381Z,93394.00
2024-05-09T01:02:07.445Z,93392.00
2024-05-09T01:03:07.990Z,93395.00
2024-05-09T01:04:07.466Z,93393.00
2024-05-09T01:05:07.459Z,93393.00
2024-05-09T01:06:07.407Z,93394.00
2024-05-09T01:07:07.397Z,93391.00
2024-05-09T01:08:07.638Z,93391.00
2024-05-09T01:09:07.408Z,93388.00
2024-05-09T01:10:13.944Z,93389.00
2024-05-09T01:11:08.550Z,93387.00
2024-05-09T01:12:07.590Z,93388.00
2024-05-09T01:13:07.762Z,93387.00
2024-05-09T01:14:07.506Z,93387.00
2024-05-09T01:15:07.493Z,93387.00
2024-05-09T01:16:07.511Z,93386.00
2024-05-09T01:17:07.649Z,93385.00
2024-05-09T01:18:07.868Z,93384.00
2024-05-09T01:19:07.640Z,93383.00
2024-05-09T01:20:10.866Z,93384.00
2024-05-09T01:21:08.710Z,93383.00
2024-05-09T01:22:07.612Z,93382.00
2024-05-09T01:23:07.802Z,93385.00
2024-05-09T01:24:07.628Z,93384.00
2024-05-09T01:25:07.658Z,93384.00
2024-05-09T01:26:07.704Z,93385.00
2024-05-09T01:27:07.672Z,93382.00
2024-05-09T01:28:07.721Z,93381.00
2024-05-09T01:29:07.698Z,93380.00
2024-05-09T01:30:09.671Z,93382.00
2024-05-09T01:31:08.693Z,93381.00
2024-05-09T01:32:07.818Z,93381.00
2024-05-09T01:33:09.700Z,93382.00
2024-05-09T01:34:07.723Z,93383.00
2024-05-09T01:35:07.748Z,93381.00
2024-05-09T01:36:07.719Z,93380.00
2024-05-09T01:37:07.735Z,93384.00
2024-05-09T01:38:07.865Z,93382.00
2024-05-09T01:39:07.754Z,93382.00
2024-05-09T01:40:12.057Z,93384.00
2024-05-09T01:41:08.812Z,93381.00
2024-05-09T01:42:08.429Z,93380.00
2024-05-09T01:43:08.286Z,93380.00
2024-05-09T01:44:07.796Z,93380.00
2024-05-09T01:45:07.804Z,93379.00
2024-05-09T01:46:07.821Z,93378.00
2024-05-09T01:47:07.897Z,93378.00
2024-05-09T01:48:08.140Z,93378.00
2024-05-09T01:49:08.233Z,93377.00
2024-05-09T01:50:10.721Z,93378.00
2024-05-09T01:51:07.963Z,93379.00
2024-05-09T01:52:07.895Z,93381.00
2024-05-09T01:53:08.006Z,93379.00
2024-05-09T01:54:07.894Z,93380.00
2024-05-09T01:55:07.901Z,93380.00
2024-05-09T01:56:08.073Z,93382.00
2024-05-09T01:57:07.934Z,93384.00
2024-05-09T01:58:07.953Z,93382.00
2024-05-09T01:59:07.977Z,93384.00
2024-05-09T02:00:08.120Z,93384.00
2024-05-09T02:01:08.017Z,93384.00
2024-05-09T02:02:08.151Z,93385.00
2024-05-09T02:03:08.230Z,93386.00
2024-05-09T02:04:08.343Z,93386.00
2024-05-09T02:05:08.207Z,93384.00
2024-05-09T02:06:08.308Z,93386.00
2024-05-09T02:07:08.092Z,93387.00
2024-05-09T02:08:08.165Z,93388.00
2024-05-09T02:09:08.091Z,93387.00
2024-05-09T02:10:16.113Z,93384.00
2024-05-09T02:11:09.216Z,93384.00
2024-05-09T02:12:08.329Z,93386.00
2024-05-09T02:13:08.165Z,93384.00
2024-05-09T02:14:08.281Z,93386.00
2024-05-09T02:15:08.177Z,93387.00
2024-05-09T02:16:08.194Z,93389.00
2024-05-09T02:17:08.324Z,93385.00
2024-05-09T02:18:08.622Z,93387.00
2024-05-09T02:19:08.333Z,93387.00
2024-05-09T02:20:13.135Z,93388.00
2024-05-09T02:21:09.302Z,93388.00
2024-05-09T02:22:08.295Z,93386.00
2024-05-09T02:23:08.514Z,93388.00
2024-05-09T02:24:08.291Z,93391.00
2024-05-09T02:25:08.321Z,93391.00
2024-05-09T02:26:08.361Z,93391.00
2024-05-09T02:27:08.338Z,93391.00
2024-05-09T02:28:08.351Z,93390.00
2024-05-09T02:29:08.410Z,93388.00
2024-05-09T02:30:18.289Z,93388.00
2024-05-09T02:31:09.389Z,93390.00
2024-05-09T02:32:08.578Z,93389.00
2024-05-09T02:33:09.364Z,93385.00
2024-05-09T02:34:08.681Z,93386.00
2024-05-09T02:35:08.520Z,93384.00
2024-05-09T02:36:08.451Z,93383.00
2024-05-09T02:37:08.480Z,93383.00
2024-05-09T02:38:08.508Z,93385.00
2024-05-09T02:39:08.490Z,93385.00
2024-05-09T02:40:14.242Z,93386.00
2024-05-09T02:41:09.527Z,93384.00
2024-05-09T02:42:08.515Z,93382.00
2024-05-09T02:43:09.968Z,93384.00
2024-05-09T02:44:08.760Z,93382.00
2024-05-09T02:45:08.784Z,93383.00
2024-05-09T02:46:08.843Z,93383.00
2024-05-09T02:47:09.023Z,93383.00
2024-05-09T02:48:09.082Z,93381.00
2024-05-09T02:49:09.126Z,93382.00
2024-05-09T02:50:13.220Z,93382.00
2024-05-09T02:51:10.251Z,93379.00
2024-05-09T02:52:09.082Z,93379.00
2024-05-09T02:53:09.816Z,93379.00
2024-05-09T02:54:09.090Z,93380.00
2024-05-09T02:55:09.195Z,93378.00
2024-05-09T02:56:09.128Z,93380.00
2024-05-09T02:57:09.202Z,93377.00
2024-05-09T02:58:09.220Z,93376.00
2024-05-09T02:59:09.150Z,93377.00
2024-05-09T03:00:15.196Z,93378.00
2024-05-09T03:01:10.217Z,93379.00
2024-05-09T03:02:09.225Z,93377.00
2024-05-09T03:03:10.766Z,93380.00
2024-05-09T03:04:09.350Z,93378.00
2024-05-09T03:05:09.267Z,93378.00
2024-05-09T03:06:09.214Z,93381.00
2024-05-09T03:07:09.206Z,93377.00
2024-05-09T03:08:10.112Z,93378.00
2024-05-09T03:09:09.208Z,93377.00
2024-05-09T03:10:18.183Z,93377.00
2024-05-09T03:11:10.363Z,93376.00
2024-05-09T03:12:09.366Z,93378.00
2024-05-09T03:13:09.375Z,93376.00
2024-05-09T03:14:09.303Z,93376.00
2024-05-09T03:15:09.284Z,93377.00
2024-05-09T03:16:09.278Z,93378.00
2024-05-09T03:17:09.342Z,93378.00
2024-05-09T03:18:09.767Z,93378.00
2024-05-09T03:19:09.541Z,93378.00
2024-05-09T03:20:16.890Z,93379.00
2024-05-09T03:21:10.442Z,93378.00
2024-05-09T03:22:09.328Z,93379.00
2024-05-09T03:23:10.272Z,93379.00
2024-05-09T03:24:09.343Z,93380.00
2024-05-09T03:25:09.358Z,93380.00
2024-05-09T03:26:09.397Z,93382.00
2024-05-09T03:27:09.379Z,93384.00
2024-05-09T03:28:09.377Z,93382.00
2024-05-09T03:29:09.423Z,93385.00
2024-05-09T03:30:10.012Z,93384.00
2024-05-09T03:31:09.394Z,93385.00
2024-05-09T03:32:09.514Z,93385.00
2024-05-09T03:33:09.806Z,93382.00
2024-05-09T03:34:09.606Z,93386.00
2024-05-09T03:35:09.695Z,93388.00
2024-05-09T03:36:11.334Z,93386.00
2024-05-09T03:37:09.683Z,93387.00
2024-05-09T03:38:09.968Z,93387.00
2024-05-09T03:39:09.790Z,93387.00
2024-05-09T03:40:17.520Z,93387.00
2024-05-09T03:41:10.876Z,93389.00
2024-05-09T03:42:09.865Z,93391.00
2024-05-09T03:43:09.867Z,93391.00
2024-05-09T03:44:09.942Z,93390.00
2024-05-09T03:45:09.895Z,93389.00
2024-05-09T03:46:09.903Z,93391.00
2024-05-09T03:47:09.963Z,93389.00
2024-05-09T03:48:10.234Z,93390.00
2024-05-09T03:49:10.006Z,93391.00
2024-05-09T03:50:17.622Z,93389.00
2024-05-09T03:51:11.178Z,93387.00
2024-05-09T03:52:09.978Z,93389.00
2024-05-09T03:53:10.020Z,93389.00
2024-05-09T03:54:09.999Z,93388.00
2024-05-09T03:55:10.022Z,93388.00
2024-05-09T03:56:10.148Z,93386.00
2024-05-09T03:57:10.039Z,93389.00
2024-05-09T03:58:10.099Z,93389.00
2024-05-09T03:59:10.091Z,93391.00
2024-05-09T04:00:17.643Z,93389.00
2024-05-09T04:01:11.191Z,93390.00
2024-05-09T04:02:10.232Z,93390.00
2024-05-09T04:03:12.130Z,93392.00
2024-05-09T04:04:10.136Z,93391.00
2024-05-09T04:05:10.144Z,93391.00
2024-05-09T04:06:10.133Z,93392.00
2024-05-09T04:07:10.146Z,93393.00
2024-05-09T04:08:10.862Z,93393.00
2024-05-09T04:09:10.178Z,93392.00
2024-05-09T04:10:17.022Z,93393.00
2024-05-09T04:11:11.253Z,93392.00
2024-05-09T04:12:10.351Z,93393.00
2024-05-09T04:13:10.270Z,93394.00
2024-05-09T04:14:10.272Z,93395.00
2024-05-09T04:15:13.290Z,93393.00
2024-05-09T04:16:10.251Z,93392.00
2024-05-09T04:17:10.309Z,93392.00
2024-05-09T04:18:10.413Z,93393.00
2024-05-09T04:19:10.430Z,93391.00
2024-05-09T04:20:15.171Z,93393.00
2024-05-09T04:21:11.353Z,93395.00
2024-05-09T04:22:10.300Z,93396.00
2024-05-09T04:23:10.370Z,93395.00
2024-05-09T04:24:10.323Z,93396.00
2024-05-09T04:25:10.338Z,93401.00
2024-05-09T04:26:10.415Z,93403.00
2024-05-09T04:27:17.622Z,93402.00
2024-05-09T04:28:17.598Z,93402.00
2024-05-09T04:29:17.648Z,93404.00
2024-05-09T04:30:25.752Z,93405.00
2024-05-09T04:31:29.879Z,93405.00
2024-05-09T04:32:30.120Z,93406.00
2024-05-09T04:33:30.763Z,93406.00
2024-05-09T04:34:30.073Z,93406.00
2024-05-09T04:35:30.074Z,93407.00
2024-05-09T04:36:30.103Z,93404.00
2024-05-09T04:37:30.193Z,93404.00
2024-05-09T04:38:30.319Z,93405.00
2024-05-09T04:39:30.285Z,93405.00
2024-05-09T04:40:34.329Z,93408.00
2024-05-09T04:41:31.444Z,93408.00
2024-05-09T04:42:30.343Z,93407.00
2024-05-09T04:43:30.362Z,93409.00
2024-05-09T04:44:30.467Z,93412.00
2024-05-09T04:45:30.404Z,93413.00
2024-05-09T04:46:30.391Z,93412.00
2024-05-09T04:47:30.627Z,93413.00
2024-05-09T04:48:30.512Z,93414.00
2024-05-09T04:49:30.579Z,93413.00
2024-05-09T04:50:36.661Z,93413.00
2024-05-09T04:51:30.454Z,93412.00
2024-05-09T04:52:30.464Z,93410.00
2024-05-09T04:53:30.490Z,93408.00
2024-05-09T04:54:36.109Z,93407.00
2024-05-09T04:55:31.580Z,93406.00
2024-05-09T04:56:30.545Z,93406.00
2024-05-09T04:57:30.522Z,93405.00
2024-05-09T04:58:30.529Z,93404.00
2024-05-09T04:59:30.629Z,93404.00
2024-05-09T05:00:35.694Z,93404.00
2024-05-09T05:01:31.537Z,93404.00
2024-05-09T05:02:30.623Z,93404.00
2024-05-09T05:03:30.788Z,93406.00
2024-05-09T05:04:30.651Z,93409.00
2024-05-09T05:05:30.585Z,93409.00
2024-05-09T05:06:30.600Z,93409.00
2024-05-09T05:07:30.573Z,93413.00
2024-05-09T05:08:30.663Z,93413.00
2024-05-09T05:09:30.566Z,93412.00
2024-05-09T05:10:35.805Z,93414.00
2024-05-09T05:11:31.660Z,93412.00
2024-05-09T05:12:30.708Z,93415.00
2024-05-09T05:13:30.598Z,93414.00
2024-05-09T05:14:30.653Z,93414.00
2024-05-09T05:15:30.691Z,93414.00
2024-05-09T05:16:30.624Z,93413.00
2024-05-09T05:17:30.749Z,93415.00
2024-05-09T05:18:30.725Z,93414.00
2024-05-09T05:19:30.924Z,93414.00
2024-05-09T05:20:33.696Z,93413.00
2024-05-09T05:21:31.804Z,93412.00
2024-05-09T05:22:30.673Z,93412.00
2024-05-09T05:23:30.733Z,93414.00
2024-05-09T05:24:30.685Z,93414.00
2024-05-09T05:25:30.698Z,93413.00
2024-05-09T05:26:30.743Z,93412.00
2024-05-09T05:27:30.742Z,93415.00
2024-05-09T05:28:30.729Z,93414.00
2024-05-09T05:29:30.766Z,93417.00
2024-05-09T05:30:34.561Z,93417.00
2024-05-09T05:31:30.807Z,93418.00
2024-05-09T05:32:30.874Z,93420.00
2024-05-09T05:33:30.991Z,93417.00
2024-05-09T05:34:30.762Z,93419.00
2024-05-09T05:35:30.828Z,93419.00
2024-05-09T05:36:30.767Z,93419.00
2024-05-09T05:37:30.769Z,93420.00
2024-05-09T05:38:30.796Z,93422.00
2024-05-09T05:39:30.764Z,93423.00
2024-05-09T05:40:36.341Z,93425.00
2024-05-09T05:41:31.899Z,93422.00
2024-05-09T05:42:30.804Z,93423.00
2024-05-09T05:43:30.801Z,93420.00
2024-05-09T05:44:30.844Z,93420.00
2024-05-09T05:45:30.809Z,93418.00
2024-05-09T05:46:30.832Z,93419.00
2024-05-09T05:47:30.949Z,93417.00
2024-05-09T05:48:30.906Z,93417.00
2024-05-09T05:49:31.041Z,93416.00
2024-05-09T05:50:35.880Z,93418.00
2024-05-09T05:51:30.846Z,93416.00
2024-05-09T05:52:30.873Z,93418.00
2024-05-09T05:53:30.917Z,93418.00
2024-05-09T05:54:30.883Z,93416.00
2024-05-09T05:55:30.881Z,93419.00
2024-05-09T05:56:30.920Z,93419.00
2024-05-09T05:57:30.888Z,93420.00
2024-05-09T05:58:30.897Z,93423.00
2024-05-09T05:59:30.939Z,93421.00
2024-05-09T06:00:37.822Z,93423.00
2024-05-09T06:01:32.011Z,93423.00
2024-05-09T06:02:31.021Z,93421.00
2024-05-09T06:03:30.986Z,93424.00
2024-05-09T06:04:30.966Z,93426.00
2024-05-09T06:05:30.976Z,93425.00
2024-05-09T06:06:30.943Z,93426.00
2024-05-09T06:07:30.938Z,93427.00
2024-05-09T06:08:31.049Z,93428.00
2024-05-09T06:09:30.968Z,93427.00
2024-05-09T06:11:31.155Z,93430.00
2024-05-09T06:12:31.043Z,93431.00
2024-05-09T06:13:31.008Z,93430.00
2024-05-09T06:14:31.311Z,93428.00
2024-05-09T06:15:31.030Z,93428.00
2024-05-09T06:16:31.007Z,93429.00
2024-05-09T06:17:31.135Z,93428.00
2024-05-09T06:18:31.195Z,93430.00
2024-05-09T06:19:31.152Z,93428.00
2024-05-09T06:20:36.237Z,93426.00
2024-05-09T06:21:32.056Z,93425.00
2024-05-09T06:22:31.086Z,93425.00
2024-05-09T06:23:31.205Z,93424.00
2024-05-09T06:24:31.080Z,93425.00
2024-05-09T06:25:31.083Z,93426.00
2024-05-09T06:26:31.203Z,93421.00
2024-05-09T06:27:31.124Z,93418.00
2024-05-09T06:28:31.145Z,93421.00
2024-05-09T06:29:31.205Z,93416.00
2024-05-09T06:30:38.279Z,93414.00
2024-05-09T06:31:32.156Z,93414.00
2024-05-09T06:32:31.261Z,93414.00
2024-05-09T06:33:31.406Z,93415.00
2024-05-09T06:34:31.319Z,93413.00
2024-05-09T06:35:31.503Z,93414.00
2024-05-09T06:36:31.180Z,93415.00
2024-05-09T06:37:31.192Z,93416.00
2024-05-09T06:38:31.278Z,93416.00
2024-05-09T06:39:31.218Z,93418.00
2024-05-09T06:40:37.370Z,93415.00
2024-05-09T06:41:32.379Z,93417.00
2024-05-09T06:42:31.298Z,93417.00
2024-05-09T06:43:31.235Z,93419.00
2024-05-09T06:44:31.358Z,93417.00
2024-05-09T06:45:31.253Z,93418.00
2024-05-09T06:46:31.311Z,93420.00
2024-05-09T06:47:31.386Z,93419.00
2024-05-09T06:48:31.453Z,93418.00
2024-05-09T06:49:31.430Z,93418.00
2024-05-09T06:50:36.800Z,93417.00
2024-05-09T06:51:32.338Z,93418.00
2024-05-09T06:52:31.349Z,93419.00
2024-05-09T06:53:31.382Z,93421.00
2024-05-09T06:54:31.358Z,93421.00
2024-05-09T06:55:31.345Z,93421.00
2024-05-09T06:56:31.477Z,93420.00
2024-05-09T06:57:31.370Z,93419.00
2024-05-09T06:58:31.439Z,93420.00
2024-05-09T06:59:31.639Z,93419.00
2024-05-09T07:00:38.552Z,93420.00
2024-05-09T07:01:32.449Z,93417.00
2024-05-09T07:02:31.529Z,93416.00
2024-05-09T07:03:31.625Z,93417.00
2024-05-09T07:04:31.542Z,93417.00
2024-05-09T07:05:31.659Z,93415.00
2024-05-09T07:06:31.484Z,93414.00
2024-05-09T07:07:31.482Z,93414.00
2024-05-09T07:08:31.547Z,93415.00
2024-05-09T07:09:31.494Z,93414.00
2024-05-09T07:10:34.966Z,93414.00
2024-05-09T07:11:31.682Z,93415.00
2024-05-09T07:12:31.660Z,93414.00
2024-05-09T07:13:31.524Z,93413.00
2024-05-09T07:14:32.362Z,93413.00
2024-05-09T07:15:31.555Z,93415.00
2024-05-09T07:16:31.547Z,93415.00
2024-05-09T07:17:31.924Z,93416.00
2024-05-09T07:18:31.726Z,93415.00
2024-05-09T07:19:31.690Z,93414.00
2024-05-09T07:20:34.726Z,93416.00
2024-05-09T07:21:31.611Z,93414.00
2024-05-09T07:22:31.618Z,93413.00
2024-05-09T07:23:31.702Z,93416.00
2024-05-09T07:24:31.641Z,93411.00
2024-05-09T07:25:31.813Z,93413.00
2024-05-09T07:26:31.745Z,93413.00
2024-05-09T07:27:31.683Z,93413.00
2024-05-09T07:28:31.674Z,93413.00
2024-05-09T07:29:32.972Z,93411.00
2024-05-09T07:30:34.375Z,93409.00
2024-05-09T07:31:31.688Z,93409.00
2024-05-09T07:32:31.871Z,93408.00
2024-05-09T07:33:31.858Z,93409.00
2024-05-09T07:34:31.962Z,93408.00
2024-05-09T07:35:31.956Z,93408.00
2024-05-09T07:36:31.738Z,93409.00
2024-05-09T07:37:31.737Z,93409.00
2024-05-09T07:38:31.844Z,93405.00
2024-05-09T07:39:31.772Z,93406.00
2024-05-09T07:40:36.272Z,93407.00
2024-05-09T07:41:32.894Z,93405.00
2024-05-09T07:42:31.810Z,93405.00
2024-05-09T07:43:31.826Z,93402.00
2024-05-09T07:44:31.983Z,93402.00
2024-05-09T07:45:48.182Z,93403.00
2024-05-09T07:48:57.470Z,93400.00
2024-05-09T07:50:33.310Z,93401.00
2024-05-09T07:52:23.892Z,93399.00
2024-05-09T07:53:08.843Z,93397.00
2024-05-09T07:53:32.786Z,93397.00
2024-05-09T07:53:40.887Z,93397.00
2024-05-09T07:54:33.191Z,93396.00
2024-05-09T07:55:32.147Z,93396.00
2024-05-09T07:56:32.183Z,93397.00
2024-05-09T07:57:31.948Z,93396.00
2024-05-09T07:58:31.948Z,93395.00
2024-05-09T07:59:35.070Z,93393.00
2024-05-09T08:00:33.177Z,93395.00
2024-05-09T08:01:31.984Z,93392.00
2024-05-09T08:02:32.137Z,93391.00
2024-05-09T08:03:32.103Z,93392.00
2024-05-09T08:04:32.107Z,93390.00
2024-05-09T08:05:32.247Z,93390.00
2024-05-09T08:06:32.064Z,93390.00
2024-05-09T08:07:32.037Z,93391.00
2024-05-09T08:08:32.069Z,93389.00
2024-05-09T08:09:32.086Z,93391.00
2024-05-09T08:10:32.158Z,93390.00
2024-05-09T08:11:32.162Z,93390.00
2024-05-09T08:12:32.197Z,93392.00
2024-05-09T08:13:32.221Z,93389.00
2024-05-09T08:14:32.260Z,93389.00
2024-05-09T08:15:32.375Z,93389.00
2024-05-09T08:16:32.395Z,93388.00
2024-05-09T08:17:32.561Z,93386.00
2024-05-09T08:18:32.770Z,93383.00
2024-05-09T08:19:32.671Z,93382.00
2024-05-09T08:20:35.262Z,93382.00
2024-05-09T08:21:32.689Z,93379.00
2024-05-09T08:22:32.596Z,93378.00
2024-05-09T08:23:32.617Z,93378.00
2024-05-09T08:24:32.661Z,93378.00
2024-05-09T08:25:32.630Z,93378.00
2024-05-09T08:26:32.653Z,93379.00
2024-05-09T08:27:32.676Z,93377.00
2024-05-09T08:28:32.654Z,93376.00
2024-05-09T08:29:32.677Z,93374.00
2024-05-09T08:30:36.624Z,93376.00
2024-05-09T08:31:33.752Z,93375.00
2024-05-09T08:32:32.753Z,93374.00
2024-05-09T08:33:33.050Z,93375.00
2024-05-09T08:34:32.834Z,93375.00
2024-05-09T08:35:32.731Z,93376.00
2024-05-09T08:36:32.778Z,93373.00
2024-05-09T08:37:37.796Z,93373.00
2024-05-09T08:38:33.746Z,93372.00
2024-05-09T08:39:32.839Z,93373.00
2024-05-09T08:40:35.556Z,93372.00
2024-05-09T08:41:32.772Z,93372.00
2024-05-09T08:42:32.810Z,93369.00
2024-05-09T08:43:32.768Z,93369.00
2024-05-09T08:44:32.796Z,93368.00
2024-05-09T08:45:32.839Z,93366.00
2024-05-09T08:46:32.825Z,93369.00
2024-05-09T08:47:32.914Z,93365.00
2024-05-09T08:48:33.118Z,93365.00
2024-05-09T08:49:32.856Z,93361.00
2024-05-09T08:50:38.647Z,93362.00
2024-05-09T08:51:33.919Z,93361.00
2024-05-09T08:52:32.837Z,93362.00
2024-05-09T08:53:32.839Z,93359.00
2024-05-09T08:54:32.892Z,93357.00
2024-05-09T08:55:32.926Z,93358.00
2024-05-09T08:56:32.857Z,93360.00
2024-05-09T08:57:32.896Z,93360.00
2024-05-09T08:58:32.892Z,93355.00
2024-05-09T08:59:32.957Z,93355.00
2024-05-09T09:00:36.975Z,93355.00
2024-05-09T09:01:33.000Z,93355.00
2024-05-09T09:02:33.121Z,93354.00
2024-05-09T09:03:33.068Z,93353.00
2024-05-09T09:04:32.988Z,93356.00
2024-05-09T09:05:33.037Z,93353.00
2024-05-09T09:06:32.979Z,93354.00
2024-05-09T09:07:33.030Z,93353.00
2024-05-09T09:08:32.965Z,93353.00
2024-05-09T09:09:33.004Z,93353.00
2024-05-09T09:10:33.561Z,93353.00
2024-05-09T09:11:33.022Z,93353.00
2024-05-09T09:12:32.989Z,93353.00
2024-05-09T09:13:33.042Z,93356.00
2024-05-09T09:14:33.076Z,93355.00
2024-05-09T09:15:33.329Z,93352.00
2024-05-09T09:16:33.155Z,93354.00
2024-05-09T09:17:33.263Z,93354.00
2024-05-09T09:18:33.584Z,93352.00
2024-05-09T09:19:33.314Z,93350.00
2024-05-09T09:20:36.603Z,93351.00
2024-05-09T09:21:33.390Z,93351.00
2024-05-09T09:22:33.321Z,93348.00
2024-05-09T09:23:33.365Z,93348.00
2024-05-09T09:24:33.348Z,93347.00
2024-05-09T09:25:33.347Z,93348.00
2024-05-09T09:26:33.352Z,93345.00
2024-05-09T09:27:33.424Z,93344.00
2024-05-09T09:28:33.370Z,93346.00
2024-05-09T09:29:33.362Z,93344.00
2024-05-09T09:30:37.344Z,93343.00
2024-05-09T09:31:33.536Z,93345.00
2024-05-09T09:32:33.470Z,93344.00
2024-05-09T09:33:33.614Z,93340.00
2024-05-09T09:34:33.467Z,93341.00
2024-05-09T09:35:33.402Z,93340.00
2024-05-09T09:36:33.448Z,93340.00
2024-05-09T09:37:33.420Z,93337.00
2024-05-09T09:38:33.418Z,93337.00
2024-05-09T09:39:33.499Z,93336.00
2024-05-09T09:40:35.908Z,93337.00
2024-05-09T09:41:34.440Z,93331.00
2024-05-09T09:42:33.498Z,93330.00
2024-05-09T09:43:33.463Z,93331.00
2024-05-09T09:44:34.183Z,93327.00
2024-05-09T09:45:33.479Z,93326.00
2024-05-09T09:46:33.507Z,93324.00
2024-05-09T09:47:33.577Z,93323.00
2024-05-09T09:48:33.508Z,93322.00
2024-05-09T09:49:33.566Z,93318.00
2024-05-09T09:50:34.865Z,93318.00
2024-05-09T09:51:33.516Z,93316.00
2024-05-09T09:52:33.531Z,93317.00
2024-05-09T09:53:33.497Z,93319.00
2024-05-09T09:54:33.605Z,93318.00
2024-05-09T09:55:33.599Z,93316.00
2024-05-09T09:56:33.628Z,93315.00
2024-05-09T09:57:33.679Z,93315.00
2024-05-09T09:58:33.799Z,93314.00
2024-05-09T09:59:33.757Z,93310.00
2024-05-09T10:00:34.244Z,93311.00
2024-05-09T10:01:34.026Z,93309.00
2024-05-09T10:02:33.978Z,93312.00
2024-05-09T10:03:34.178Z,93309.00
2024-05-09T10:04:34.049Z,93307.00
2024-05-09T10:05:34.357Z,93306.00
2024-05-09T10:06:34.172Z,93307.00
2024-05-09T10:07:34.133Z,93305.00
2024-05-09T10:08:34.177Z,93305.00
2024-05-09T10:09:34.234Z,93304.00
2024-05-09T10:10:34.599Z,93302.00
2024-05-09T10:11:41.834Z,93303.00
2024-05-09T10:12:35.438Z,93301.00
2024-05-09T10:13:34.493Z,93301.00
2024-05-09T10:14:34.341Z,93301.00
2024-05-09T10:15:34.396Z,93300.00
2024-05-09T10:16:34.417Z,93300.00
2024-05-09T10:17:34.478Z,93299.00
2024-05-09T10:18:34.599Z,93300.00
2024-05-09T10:19:34.453Z,93298.00
2024-05-09T10:20:34.433Z,93298.00
2024-05-09T10:21:34.427Z,93299.00
2024-05-09T10:22:34.400Z,93299.00
2024-05-09T10:23:34.638Z,93297.00
2024-05-09T10:24:34.447Z,93295.00
2024-05-09T10:25:34.428Z,93291.00
2024-05-09T10:26:34.439Z,93291.00
2024-05-09T10:27:34.574Z,93288.00
2024-05-09T10:28:34.561Z,93289.00
2024-05-09T10:29:34.587Z,93287.00
2024-05-09T10:30:36.350Z,93286.00
2024-05-09T10:31:34.776Z,93283.00
2024-05-09T10:32:34.756Z,93282.00
2024-05-09T10:33:34.975Z,93283.00
2024-05-09T10:34:34.926Z,93283.00
2024-05-09T10:35:34.874Z,93280.00
2024-05-09T10:36:34.938Z,93274.00
2024-05-09T10:37:34.998Z,93274.00
2024-05-09T10:38:34.993Z,93275.00
2024-05-09T10:39:35.105Z,93275.00
2024-05-09T10:40:35.173Z,93274.00
2024-05-09T10:41:35.132Z,93276.00
2024-05-09T10:42:35.186Z,93270.00
2024-05-09T10:43:35.241Z,93268.00
2024-05-09T10:44:35.860Z,93266.00
2024-05-09T10:45:35.361Z,93269.00
2024-05-09T10:46:35.353Z,93269.00
2024-05-09T10:47:35.472Z,93268.00
2024-05-09T10:48:35.485Z,93267.00
2024-05-09T10:49:35.549Z,93267.00
2024-05-09T10:50:35.564Z,93266.00
2024-05-09T10:51:35.618Z,93265.00
2024-05-09T10:52:35.597Z,93268.00
2024-05-09T10:53:35.647Z,93263.00
2024-05-09T10:54:35.720Z,93263.00
2024-05-09T10:55:35.744Z,93265.00
2024-05-09T10:56:35.779Z,93262.00
2024-05-09T10:57:35.845Z,93261.00
2024-05-09T10:58:35.867Z,93261.00
2024-05-09T10:59:35.918Z,93258.00
2024-05-09T11:00:36.749Z,93258.00
2024-05-09T11:01:36.151Z,93255.00
2024-05-09T11:02:36.251Z,93256.00
2024-05-09T11:03:36.555Z,93252.00
2024-05-09T11:04:36.235Z,93253.00
2024-05-09T11:05:36.397Z,93249.00
2024-05-09T11:06:36.256Z,93251.00
2024-05-09T11:07:36.255Z,93249.00
2024-05-09T11:08:36.308Z,93250.00
2024-05-09T11:09:36.350Z,93248.00
2024-05-09T11:10:36.432Z,93249.00
2024-05-09T11:11:36.451Z,93245.00
2024-05-09T11:12:36.480Z,93246.00
2024-05-09T11:13:36.585Z,93244.00
2024-05-09T11:14:36.532Z,93242.00
2024-05-09T11:15:36.585Z,93242.00
2024-05-09T11:16:36.604Z,93241.00
2024-05-09T11:17:36.721Z,93240.00
2024-05-09T11:18:39.028Z,93241.00
2024-05-09T11:19:36.751Z,93241.00
2024-05-09T11:20:36.976Z,93239.00
2024-05-09T11:21:36.712Z,93238.00
2024-05-09T11:22:36.721Z,93239.00
2024-05-09T11:23:36.737Z,93241.00
2024-05-09T11:24:36.758Z,93238.00
2024-05-09T11:25:36.758Z,93240.00
2024-05-09T11:26:36.734Z,93241.00
2024-05-09T11:27:36.793Z,93240.00
2024-05-09T11:28:36.755Z,93241.00
2024-05-09T11:29:36.762Z,93240.00
2024-05-09T11:30:36.839Z,93239.00
2024-05-09T11:31:36.864Z,93239.00
2024-05-09T11:32:36.940Z,93237.00
2024-05-09T11:33:36.989Z,93236.00
2024-05-09T11:34:36.868Z,93236.00
2024-05-09T11:35:36.802Z,93234.00
2024-05-09T11:36:36.838Z,93234.00
2024-05-09T11:37:37.313Z,93235.00
2024-05-09T11:38:36.852Z,93236.00
2024-05-09T11:39:36.904Z,93234.00
2024-05-09T11:40:36.907Z,93231.00
2024-05-09T11:41:36.854Z,93231.00
2024-05-09T11:42:36.884Z,93228.00
2024-05-09T11:43:36.866Z,93229.00
2024-05-09T11:44:36.868Z,93224.00
2024-05-09T11:45:36.938Z,93224.00
2024-05-09T11:46:36.948Z,93223.00
2024-05-09T11:47:37.003Z,93224.00